sensor_id;sensor_type;location;lat;lon;timestamp;P1;durP1;ratioP1;P2;durP2;ratioP2
22812;SDS011;11573;51.334;3.244;2023-11-19T00:00:16;73.47;;;11.80;;
22812;SDS011;11573;51.334;3.244;2023-11-19T00:02:43;65.13;;;10.82;;
22812;SDS011;11573;51.334;3.244;2023-11-19T00:05:10;66.95;;;10.63;;
22812;SDS011;11573;51.334;3.244;2023-11-19T00:07:39;75.95;;;11.32;;
22812;SDS011;11573;51.334;3.244;2023-11-19T00:10:10;75.95;;;10.55;;
22812;SDS011;11573;51.334;3.244;2023-11-19T00:12:42;66.30;;;10.13;;
22812;SDS011;11573;51.334;3.244;2023-11-19T00:15:11;76.57;;;11.15;;
22812;SDS011;11573;51.334;3.244;2023-11-19T00:17:42;70.85;;;10.18;;
22812;SDS011;11573;51.334;3.244;2023-11-19T00:20:12;72.03;;;11.98;;
22812;SDS011;11573;51.334;3.244;2023-11-19T00:22:44;65.28;;;9.98;;
22812;SDS011;11573;51.334;3.244;2023-11-19T00:25:16;60.95;;;10.25;;
22812;SDS011;11573;51.334;3.244;2023-11-19T00:27:44;80.40;;;11.18;;
22812;SDS011;11573;51.334;3.244;2023-11-19T00:30:11;67.00;;;11.50;;
22812;SDS011;11573;51.334;3.244;2023-11-19T00:32:40;69.80;;;11.73;;
22812;SDS011;11573;51.334;3.244;2023-11-19T00:35:08;71.82;;;11.00;;
22812;SDS011;11573;51.334;3.244;2023-11-19T00:37:36;77.00;;;11.52;;
22812;SDS011;11573;51.334;3.244;2023-11-19T00:40:04;72.57;;;11.13;;
22812;SDS011;11573;51.334;3.244;2023-11-19T00:42:32;75.95;;;11.40;;
22812;SDS011;11573;51.334;3.244;2023-11-19T00:44:59;83.00;;;12.30;;
22812;SDS011;11573;51.334;3.244;2023-11-19T00:47:27;73.13;;;12.38;;
22812;SDS011;11573;51.334;3.244;2023-11-19T00:49:54;79.55;;;10.68;;
22812;SDS011;11573;51.334;3.244;2023-11-19T00:52:22;78.22;;;12.23;;
22812;SDS011;11573;51.334;3.244;2023-11-19T00:54:49;81.45;;;12.40;;
22812;SDS011;11573;51.334;3.244;2023-11-19T00:57:16;74.07;;;12.70;;
22812;SDS011;11573;51.334;3.244;2023-11-19T00:59:43;77.07;;;11.88;;
22812;SDS011;11573;51.334;3.244;2023-11-19T01:02:10;80.57;;;11.93;;
22812;SDS011;11573;51.334;3.244;2023-11-19T01:04:37;74.93;;;10.60;;
22812;SDS011;11573;51.334;3.244;2023-11-19T01:07:05;70.20;;;10.38;;
22812;SDS011;11573;51.334;3.244;2023-11-19T01:09:32;64.43;;;11.45;;
22812;SDS011;11573;51.334;3.244;2023-11-19T01:12:01;63.72;;;10.88;;
22812;SDS011;11573;51.334;3.244;2023-11-19T01:14:29;64.43;;;11.82;;
22812;SDS011;11573;51.334;3.244;2023-11-19T01:16:57;74.65;;;10.60;;
22812;SDS011;11573;51.334;3.244;2023-11-19T01:19:24;81.75;;;11.80;;
22812;SDS011;11573;51.334;3.244;2023-11-19T01:21:51;68.95;;;10.80;;
22812;SDS011;11573;51.334;3.244;2023-11-19T01:24:18;70.07;;;12.20;;
22812;SDS011;11573;51.334;3.244;2023-11-19T01:26:46;70.82;;;11.68;;
22812;SDS011;11573;51.334;3.244;2023-11-19T01:29:16;76.55;;;11.90;;
22812;SDS011;11573;51.334;3.244;2023-11-19T01:31:45;78.78;;;11.18;;
22812;SDS011;11573;51.334;3.244;2023-11-19T01:34:13;82.32;;;12.95;;
22812;SDS011;11573;51.334;3.244;2023-11-19T01:36:40;78.90;;;12.27;;
22812;SDS011;11573;51.334;3.244;2023-11-19T01:39:07;82.35;;;11.27;;
22812;SDS011;11573;51.334;3.244;2023-11-19T01:41:34;85.68;;;12.45;;
22812;SDS011;11573;51.334;3.244;2023-11-19T01:44:08;72.55;;;10.35;;
22812;SDS011;11573;51.334;3.244;2023-11-19T01:46:35;75.50;;;12.40;;
22812;SDS011;11573;51.334;3.244;2023-11-19T01:49:03;78.22;;;11.23;;
22812;SDS011;11573;51.334;3.244;2023-11-19T01:51:31;74.72;;;12.32;;
22812;SDS011;11573;51.334;3.244;2023-11-19T01:53:59;75.75;;;12.55;;
22812;SDS011;11573;51.334;3.244;2023-11-19T01:56:26;76.18;;;11.57;;
22812;SDS011;11573;51.334;3.244;2023-11-19T01:58:54;71.05;;;10.48;;
22812;SDS011;11573;51.334;3.244;2023-11-19T02:01:22;74.45;;;11.07;;
22812;SDS011;11573;51.334;3.244;2023-11-19T02:03:51;83.32;;;12.23;;
22812;SDS011;11573;51.334;3.244;2023-11-19T02:06:18;77.93;;;10.88;;
22812;SDS011;11573;51.334;3.244;2023-11-19T02:08:46;79.20;;;10.65;;
22812;SDS011;11573;51.334;3.244;2023-11-19T02:11:13;78.45;;;10.88;;
22812;SDS011;11573;51.334;3.244;2023-11-19T02:13:40;78.78;;;11.05;;
22812;SDS011;11573;51.334;3.244;2023-11-19T02:16:08;70.40;;;11.85;;
22812;SDS011;11573;51.334;3.244;2023-11-19T02:18:36;77.57;;;11.52;;
22812;SDS011;11573;51.334;3.244;2023-11-19T02:21:03;65.47;;;11.13;;
22812;SDS011;11573;51.334;3.244;2023-11-19T02:23:31;72.88;;;11.43;;
22812;SDS011;11573;51.334;3.244;2023-11-19T02:26:03;71.10;;;10.52;;
22812;SDS011;11573;51.334;3.244;2023-11-19T02:28:36;78.22;;;11.50;;
22812;SDS011;11573;51.334;3.244;2023-11-19T02:31:03;71.13;;;11.00;;
22812;SDS011;11573;51.334;3.244;2023-11-19T02:33:37;73.50;;;11.20;;
22812;SDS011;11573;51.334;3.244;2023-11-19T02:36:05;67.03;;;11.23;;
22812;SDS011;11573;51.334;3.244;2023-11-19T02:38:34;62.97;;;10.50;;
22812;SDS011;11573;51.334;3.244;2023-11-19T02:41:06;72.55;;;10.88;;
22812;SDS011;11573;51.334;3.244;2023-11-19T02:43:33;61.90;;;11.95;;
22812;SDS011;11573;51.334;3.244;2023-11-19T02:46:04;83.93;;;11.30;;
22812;SDS011;11573;51.334;3.244;2023-11-19T02:48:37;73.68;;;10.60;;
22812;SDS011;11573;51.334;3.244;2023-11-19T02:51:05;59.63;;;11.52;;
22812;SDS011;11573;51.334;3.244;2023-11-19T02:53:36;80.78;;;11.02;;
22812;SDS011;11573;51.334;3.244;2023-11-19T02:56:05;71.85;;;11.05;;
22812;SDS011;11573;51.334;3.244;2023-11-19T02:58:38;75.93;;;10.35;;
22812;SDS011;11573;51.334;3.244;2023-11-19T03:01:05;71.85;;;10.95;;
22812;SDS011;11573;51.334;3.244;2023-11-19T03:03:50;75.03;;;11.73;;
22812;SDS011;11573;51.334;3.244;2023-11-19T03:06:24;54.72;;;9.88;;
22812;SDS011;11573;51.334;3.244;2023-11-19T03:08:51;64.78;;;10.27;;
22812;SDS011;11573;51.334;3.244;2023-11-19T03:11:18;62.92;;;10.15;;
22812;SDS011;11573;51.334;3.244;2023-11-19T03:13:45;59.05;;;9.77;;
22812;SDS011;11573;51.334;3.244;2023-11-19T03:16:13;67.57;;;10.57;;
22812;SDS011;11573;51.334;3.244;2023-11-19T03:18:40;64.70;;;10.45;;
22812;SDS011;11573;51.334;3.244;2023-11-19T03:21:07;66.57;;;10.63;;
22812;SDS011;11573;51.334;3.244;2023-11-19T03:23:35;73.00;;;11.40;;
22812;SDS011;11573;51.334;3.244;2023-11-19T03:26:03;75.15;;;10.52;;
22812;SDS011;11573;51.334;3.244;2023-11-19T03:28:32;58.97;;;11.57;;
22812;SDS011;11573;51.334;3.244;2023-11-19T03:30:59;61.70;;;9.65;;
22812;SDS011;11573;51.334;3.244;2023-11-19T03:33:26;69.88;;;10.60;;
22812;SDS011;11573;51.334;3.244;2023-11-19T03:35:56;67.35;;;11.77;;
22812;SDS011;11573;51.334;3.244;2023-11-19T03:38:23;62.05;;;10.95;;
22812;SDS011;11573;51.334;3.244;2023-11-19T03:40:51;68.65;;;11.77;;
22812;SDS011;11573;51.334;3.244;2023-11-19T03:43:18;69.50;;;10.57;;
22812;SDS011;11573;51.334;3.244;2023-11-19T03:45:46;69.55;;;10.95;;
22812;SDS011;11573;51.334;3.244;2023-11-19T03:48:13;63.47;;;10.07;;
22812;SDS011;11573;51.334;3.244;2023-11-19T03:50:43;69.72;;;11.82;;
22812;SDS011;11573;51.334;3.244;2023-11-19T03:53:11;64.90;;;10.85;;
22812;SDS011;11573;51.334;3.244;2023-11-19T03:55:38;62.28;;;9.73;;
22812;SDS011;11573;51.334;3.244;2023-11-19T03:58:05;66.57;;;11.07;;
22812;SDS011;11573;51.334;3.244;2023-11-19T04:00:32;69.93;;;10.90;;
22812;SDS011;11573;51.334;3.244;2023-11-19T04:02:59;63.20;;;10.77;;
22812;SDS011;11573;51.334;3.244;2023-11-19T04:05:27;71.68;;;11.43;;
22812;SDS011;11573;51.334;3.244;2023-11-19T04:07:54;66.97;;;10.50;;
22812;SDS011;11573;51.334;3.244;2023-11-19T04:10:21;72.13;;;10.73;;
22812;SDS011;11573;51.334;3.244;2023-11-19T04:12:49;73.28;;;10.88;;
22812;SDS011;11573;51.334;3.244;2023-11-19T04:15:16;55.78;;;10.02;;
22812;SDS011;11573;51.334;3.244;2023-11-19T04:17:43;66.05;;;10.75;;
22812;SDS011;11573;51.334;3.244;2023-11-19T04:20:11;77.15;;;12.07;;
22812;SDS011;11573;51.334;3.244;2023-11-19T04:22:41;75.18;;;10.63;;
22812;SDS011;11573;51.334;3.244;2023-11-19T04:25:08;78.55;;;11.75;;
22812;SDS011;11573;51.334;3.244;2023-11-19T04:27:36;67.57;;;12.27;;
22812;SDS011;11573;51.334;3.244;2023-11-19T04:30:03;72.85;;;10.95;;
22812;SDS011;11573;51.334;3.244;2023-11-19T04:32:32;69.25;;;10.73;;
22812;SDS011;11573;51.334;3.244;2023-11-19T04:34:59;69.20;;;10.55;;
22812;SDS011;11573;51.334;3.244;2023-11-19T04:37:26;73.10;;;11.05;;
22812;SDS011;11573;51.334;3.244;2023-11-19T04:39:53;74.40;;;11.40;;
22812;SDS011;11573;51.334;3.244;2023-11-19T04:42:22;64.68;;;10.93;;
22812;SDS011;11573;51.334;3.244;2023-11-19T04:44:49;63.25;;;10.35;;
22812;SDS011;11573;51.334;3.244;2023-11-19T04:47:16;62.72;;;10.15;;
22812;SDS011;11573;51.334;3.244;2023-11-19T04:49:43;69.43;;;9.95;;
22812;SDS011;11573;51.334;3.244;2023-11-19T04:52:10;59.58;;;9.15;;
22812;SDS011;11573;51.334;3.244;2023-11-19T04:54:42;59.30;;;10.00;;
22812;SDS011;11573;51.334;3.244;2023-11-19T04:57:10;67.45;;;9.43;;
22812;SDS011;11573;51.334;3.244;2023-11-19T04:59:40;64.85;;;10.40;;
22812;SDS011;11573;51.334;3.244;2023-11-19T05:02:08;75.22;;;11.43;;
22812;SDS011;11573;51.334;3.244;2023-11-19T05:04:35;62.90;;;9.50;;
22812;SDS011;11573;51.334;3.244;2023-11-19T05:07:04;60.13;;;10.85;;
22812;SDS011;11573;51.334;3.244;2023-11-19T05:09:31;64.00;;;9.77;;
22812;SDS011;11573;51.334;3.244;2023-11-19T05:11:58;58.25;;;10.18;;
22812;SDS011;11573;51.334;3.244;2023-11-19T05:14:25;48.28;;;8.50;;
22812;SDS011;11573;51.334;3.244;2023-11-19T05:16:52;70.47;;;10.02;;
22812;SDS011;11573;51.334;3.244;2023-11-19T05:19:19;58.80;;;9.45;;
22812;SDS011;11573;51.334;3.244;2023-11-19T05:21:46;60.58;;;9.43;;
22812;SDS011;11573;51.334;3.244;2023-11-19T05:24:13;47.47;;;8.45;;
22812;SDS011;11573;51.334;3.244;2023-11-19T05:26:40;52.13;;;8.77;;
22812;SDS011;11573;51.334;3.244;2023-11-19T05:29:08;52.40;;;7.78;;
22812;SDS011;11573;51.334;3.244;2023-11-19T05:31:35;51.05;;;9.13;;
22812;SDS011;11573;51.334;3.244;2023-11-19T05:34:04;47.00;;;8.68;;
22812;SDS011;11573;51.334;3.244;2023-11-19T05:36:31;53.63;;;9.23;;
22812;SDS011;11573;51.334;3.244;2023-11-19T05:38:58;57.05;;;8.90;;
22812;SDS011;11573;51.334;3.244;2023-11-19T05:41:25;51.30;;;7.85;;
22812;SDS011;11573;51.334;3.244;2023-11-19T05:43:52;54.17;;;9.40;;
22812;SDS011;11573;51.334;3.244;2023-11-19T05:46:19;53.58;;;9.45;;
22812;SDS011;11573;51.334;3.244;2023-11-19T05:48:47;50.97;;;8.90;;
22812;SDS011;11573;51.334;3.244;2023-11-19T05:51:14;46.88;;;8.32;;
22812;SDS011;11573;51.334;3.244;2023-11-19T05:53:42;50.97;;;8.88;;
22812;SDS011;11573;51.334;3.244;2023-11-19T05:56:10;51.72;;;8.98;;
22812;SDS011;11573;51.334;3.244;2023-11-19T05:58:37;60.50;;;10.32;;
22812;SDS011;11573;51.334;3.244;2023-11-19T06:01:05;64.20;;;8.45;;
22812;SDS011;11573;51.334;3.244;2023-11-19T06:03:34;53.60;;;9.43;;
22812;SDS011;11573;51.334;3.244;2023-11-19T06:06:03;63.63;;;9.05;;
22812;SDS011;11573;51.334;3.244;2023-11-19T06:08:31;47.92;;;7.78;;
22812;SDS011;11573;51.334;3.244;2023-11-19T06:10:58;55.53;;;7.53;;
22812;SDS011;11573;51.334;3.244;2023-11-19T06:13:27;53.53;;;8.68;;
22812;SDS011;11573;51.334;3.244;2023-11-19T06:15:57;45.22;;;8.73;;
22812;SDS011;11573;51.334;3.244;2023-11-19T06:18:24;46.60;;;7.28;;
22812;SDS011;11573;51.334;3.244;2023-11-19T06:20:51;50.78;;;8.25;;
22812;SDS011;11573;51.334;3.244;2023-11-19T06:23:18;51.25;;;8.00;;
22812;SDS011;11573;51.334;3.244;2023-11-19T06:25:45;50.65;;;8.25;;
22812;SDS011;11573;51.334;3.244;2023-11-19T06:28:13;46.05;;;8.35;;
22812;SDS011;11573;51.334;3.244;2023-11-19T06:30:40;45.15;;;8.68;;
22812;SDS011;11573;51.334;3.244;2023-11-19T06:33:08;52.35;;;8.88;;
22812;SDS011;11573;51.334;3.244;2023-11-19T06:35:35;54.22;;;8.32;;
22812;SDS011;11573;51.334;3.244;2023-11-19T06:38:03;57.70;;;9.00;;
22812;SDS011;11573;51.334;3.244;2023-11-19T06:40:33;62.67;;;9.10;;
22812;SDS011;11573;51.334;3.244;2023-11-19T06:43:04;54.08;;;8.02;;
22812;SDS011;11573;51.334;3.244;2023-11-19T06:45:31;55.50;;;8.45;;
22812;SDS011;11573;51.334;3.244;2023-11-19T06:48:00;49.25;;;7.70;;
22812;SDS011;11573;51.334;3.244;2023-11-19T06:50:30;64.78;;;9.38;;
22812;SDS011;11573;51.334;3.244;2023-11-19T06:52:57;59.28;;;10.65;;
22812;SDS011;11573;51.334;3.244;2023-11-19T06:55:24;63.30;;;9.48;;
22812;SDS011;11573;51.334;3.244;2023-11-19T06:57:52;57.15;;;9.20;;
22812;SDS011;11573;51.334;3.244;2023-11-19T07:00:19;55.03;;;8.20;;
22812;SDS011;11573;51.334;3.244;2023-11-19T07:02:46;58.03;;;9.25;;
22812;SDS011;11573;51.334;3.244;2023-11-19T07:05:13;52.35;;;9.50;;
22812;SDS011;11573;51.334;3.244;2023-11-19T07:07:40;55.53;;;8.80;;
22812;SDS011;11573;51.334;3.244;2023-11-19T07:10:07;49.92;;;9.00;;
22812;SDS011;11573;51.334;3.244;2023-11-19T07:12:36;43.45;;;8.05;;
22812;SDS011;11573;51.334;3.244;2023-11-19T07:15:04;54.85;;;8.90;;
22812;SDS011;11573;51.334;3.244;2023-11-19T07:17:35;57.53;;;8.73;;
22812;SDS011;11573;51.334;3.244;2023-11-19T07:20:03;72.63;;;9.70;;
22812;SDS011;11573;51.334;3.244;2023-11-19T07:22:30;64.82;;;9.05;;
22812;SDS011;11573;51.334;3.244;2023-11-19T07:24:57;49.28;;;7.70;;
22812;SDS011;11573;51.334;3.244;2023-11-19T07:27:25;44.75;;;8.48;;
22812;SDS011;11573;51.334;3.244;2023-11-19T07:29:52;46.88;;;8.43;;
22812;SDS011;11573;51.334;3.244;2023-11-19T07:32:19;53.95;;;8.35;;
22812;SDS011;11573;51.334;3.244;2023-11-19T07:34:46;53.28;;;9.07;;
22812;SDS011;11573;51.334;3.244;2023-11-19T07:37:13;55.17;;;7.68;;
22812;SDS011;11573;51.334;3.244;2023-11-19T07:39:40;49.75;;;9.27;;
22812;SDS011;11573;51.334;3.244;2023-11-19T07:42:08;51.55;;;8.68;;
22812;SDS011;11573;51.334;3.244;2023-11-19T07:44:36;55.80;;;9.40;;
22812;SDS011;11573;51.334;3.244;2023-11-19T07:47:03;55.22;;;8.77;;
22812;SDS011;11573;51.334;3.244;2023-11-19T07:49:31;60.58;;;9.55;;
22812;SDS011;11573;51.334;3.244;2023-11-19T07:51:58;55.47;;;9.20;;
22812;SDS011;11573;51.334;3.244;2023-11-19T07:54:25;58.15;;;8.02;;
22812;SDS011;11573;51.334;3.244;2023-11-19T07:56:52;67.30;;;10.32;;
22812;SDS011;11573;51.334;3.244;2023-11-19T07:59:19;59.75;;;8.80;;
22812;SDS011;11573;51.334;3.244;2023-11-19T08:01:46;49.28;;;7.88;;
22812;SDS011;11573;51.334;3.244;2023-11-19T08:04:14;50.88;;;9.88;;
22812;SDS011;11573;51.334;3.244;2023-11-19T08:06:41;47.40;;;8.68;;
22812;SDS011;11573;51.334;3.244;2023-11-19T08:09:08;52.60;;;9.23;;
22812;SDS011;11573;51.334;3.244;2023-11-19T08:11:41;58.72;;;9.90;;
22812;SDS011;11573;51.334;3.244;2023-11-19T08:14:08;50.47;;;8.50;;
22812;SDS011;11573;51.334;3.244;2023-11-19T08:16:35;51.10;;;9.10;;
22812;SDS011;11573;51.334;3.244;2023-11-19T08:19:04;56.95;;;9.68;;
22812;SDS011;11573;51.334;3.244;2023-11-19T08:21:31;55.45;;;10.07;;
22812;SDS011;11573;51.334;3.244;2023-11-19T08:23:58;54.30;;;9.35;;
22812;SDS011;11573;51.334;3.244;2023-11-19T08:26:25;54.55;;;9.65;;
22812;SDS011;11573;51.334;3.244;2023-11-19T08:28:53;49.55;;;7.97;;
22812;SDS011;11573;51.334;3.244;2023-11-19T08:31:20;43.03;;;8.43;;
22812;SDS011;11573;51.334;3.244;2023-11-19T08:33:47;64.40;;;10.32;;
22812;SDS011;11573;51.334;3.244;2023-11-19T08:36:15;52.13;;;9.25;;
22812;SDS011;11573;51.334;3.244;2023-11-19T08:38:43;51.75;;;9.48;;
22812;SDS011;11573;51.334;3.244;2023-11-19T08:41:10;55.97;;;8.90;;
22812;SDS011;11573;51.334;3.244;2023-11-19T08:43:37;47.53;;;8.27;;
22812;SDS011;11573;51.334;3.244;2023-11-19T08:46:09;51.47;;;8.23;;
22812;SDS011;11573;51.334;3.244;2023-11-19T08:48:39;55.30;;;8.40;;
22812;SDS011;11573;51.334;3.244;2023-11-19T08:51:06;41.00;;;7.55;;
22812;SDS011;11573;51.334;3.244;2023-11-19T08:53:33;48.03;;;8.52;;
22812;SDS011;11573;51.334;3.244;2023-11-19T08:56:01;45.50;;;7.85;;
22812;SDS011;11573;51.334;3.244;2023-11-19T08:58:30;55.70;;;9.43;;
22812;SDS011;11573;51.334;3.244;2023-11-19T09:00:57;50.60;;;8.32;;
22812;SDS011;11573;51.334;3.244;2023-11-19T09:03:24;53.30;;;9.23;;
22812;SDS011;11573;51.334;3.244;2023-11-19T09:05:57;35.60;;;7.32;;
22812;SDS011;11573;51.334;3.244;2023-11-19T09:08:23;52.75;;;8.85;;
22812;SDS011;11573;51.334;3.244;2023-11-19T09:10:51;45.40;;;8.00;;
22812;SDS011;11573;51.334;3.244;2023-11-19T09:13:18;51.20;;;8.23;;
22812;SDS011;11573;51.334;3.244;2023-11-19T09:15:45;51.28;;;8.25;;
22812;SDS011;11573;51.334;3.244;2023-11-19T09:18:12;50.80;;;6.88;;
22812;SDS011;11573;51.334;3.244;2023-11-19T09:20:39;51.45;;;9.38;;
22812;SDS011;11573;51.334;3.244;2023-11-19T09:23:06;44.67;;;8.25;;
22812;SDS011;11573;51.334;3.244;2023-11-19T09:25:35;40.53;;;7.72;;
22812;SDS011;11573;51.334;3.244;2023-11-19T09:28:04;42.05;;;7.47;;
22812;SDS011;11573;51.334;3.244;2023-11-19T09:30:31;42.60;;;7.47;;
22812;SDS011;11573;51.334;3.244;2023-11-19T09:33:00;40.72;;;8.82;;
22812;SDS011;11573;51.334;3.244;2023-11-19T09:35:28;44.97;;;8.60;;
22812;SDS011;11573;51.334;3.244;2023-11-19T09:37:55;44.25;;;7.82;;
22812;SDS011;11573;51.334;3.244;2023-11-19T09:40:22;39.17;;;7.38;;
22812;SDS011;11573;51.334;3.244;2023-11-19T09:42:49;51.85;;;7.03;;
22812;SDS011;11573;51.334;3.244;2023-11-19T09:45:17;41.15;;;7.68;;
22812;SDS011;11573;51.334;3.244;2023-11-19T09:47:47;51.35;;;8.80;;
22812;SDS011;11573;51.334;3.244;2023-11-19T09:50:17;37.63;;;7.07;;
22812;SDS011;11573;51.334;3.244;2023-11-19T09:52:46;53.22;;;7.72;;
22812;SDS011;11573;51.334;3.244;2023-11-19T09:55:13;57.40;;;8.68;;
22812;SDS011;11573;51.334;3.244;2023-11-19T09:57:41;48.58;;;7.82;;
22812;SDS011;11573;51.334;3.244;2023-11-19T10:00:10;40.38;;;7.45;;
22812;SDS011;11573;51.334;3.244;2023-11-19T10:02:41;50.67;;;8.40;;
22812;SDS011;11573;51.334;3.244;2023-11-19T10:05:13;54.55;;;9.10;;
22812;SDS011;11573;51.334;3.244;2023-11-19T10:07:41;48.67;;;8.07;;
22812;SDS011;11573;51.334;3.244;2023-11-19T10:10:09;49.22;;;8.02;;
22812;SDS011;11573;51.334;3.244;2023-11-19T10:12:40;49.67;;;8.25;;
22812;SDS011;11573;51.334;3.244;2023-11-19T10:15:24;45.80;;;8.15;;
22812;SDS011;11573;51.334;3.244;2023-11-19T10:17:56;46.50;;;8.20;;
22812;SDS011;11573;51.334;3.244;2023-11-19T10:20:24;70.00;;;10.38;;
22812;SDS011;11573;51.334;3.244;2023-11-19T10:22:52;56.28;;;9.27;;
22812;SDS011;11573;51.334;3.244;2023-11-19T10:25:21;50.40;;;8.55;;
22812;SDS011;11573;51.334;3.244;2023-11-19T10:27:50;49.10;;;8.25;;
22812;SDS011;11573;51.334;3.244;2023-11-19T10:30:21;33.70;;;7.78;;
22812;SDS011;11573;51.334;3.244;2023-11-19T10:33:02;56.00;;;9.50;;
22812;SDS011;11573;51.334;3.244;2023-11-19T10:35:34;43.45;;;7.95;;
22812;SDS011;11573;51.334;3.244;2023-11-19T10:38:15;50.53;;;9.00;;
22812;SDS011;11573;51.334;3.244;2023-11-19T10:40:42;44.15;;;8.63;;
22812;SDS011;11573;51.334;3.244;2023-11-19T10:43:10;48.22;;;9.20;;
22812;SDS011;11573;51.334;3.244;2023-11-19T10:45:37;55.78;;;8.93;;
22812;SDS011;11573;51.334;3.244;2023-11-19T10:48:05;56.35;;;9.73;;
22812;SDS011;11573;51.334;3.244;2023-11-19T10:50:36;45.28;;;9.45;;
22812;SDS011;11573;51.334;3.244;2023-11-19T10:53:06;47.75;;;8.85;;
22812;SDS011;11573;51.334;3.244;2023-11-19T10:55:38;52.53;;;9.15;;
22812;SDS011;11573;51.334;3.244;2023-11-19T10:58:07;45.38;;;9.65;;
22812;SDS011;11573;51.334;3.244;2023-11-19T11:00:45;48.25;;;9.45;;
22812;SDS011;11573;51.334;3.244;2023-11-19T11:03:22;50.28;;;9.43;;
22812;SDS011;11573;51.334;3.244;2023-11-19T11:05:52;44.10;;;8.65;;
22812;SDS011;11573;51.334;3.244;2023-11-19T11:08:20;47.67;;;8.68;;
22812;SDS011;11573;51.334;3.244;2023-11-19T11:13:24;45.60;;;9.65;;
22812;SDS011;11573;51.334;3.244;2023-11-19T11:15:54;45.05;;;8.50;;
22812;SDS011;11573;51.334;3.244;2023-11-19T11:18:24;32.90;;;6.93;;
22812;SDS011;11573;51.334;3.244;2023-11-19T11:21:02;44.65;;;7.75;;
22812;SDS011;11573;51.334;3.244;2023-11-19T11:23:44;32.75;;;7.45;;
22812;SDS011;11573;51.334;3.244;2023-11-19T11:29:20;37.10;;;7.03;;
22812;SDS011;11573;51.334;3.244;2023-11-19T11:32:25;34.08;;;6.72;;
22812;SDS011;11573;51.334;3.244;2023-11-19T11:38:00;46.10;;;7.03;;
22812;SDS011;11573;51.334;3.244;2023-11-19T11:40:30;42.55;;;7.57;;
22812;SDS011;11573;51.334;3.244;2023-11-19T11:42:58;43.28;;;7.63;;
22812;SDS011;11573;51.334;3.244;2023-11-19T11:45:38;40.90;;;6.90;;
22812;SDS011;11573;51.334;3.244;2023-11-19T11:48:10;42.60;;;7.03;;
22812;SDS011;11573;51.334;3.244;2023-11-19T11:50:50;43.30;;;7.93;;
22812;SDS011;11573;51.334;3.244;2023-11-19T11:53:23;45.85;;;7.65;;
22812;SDS011;11573;51.334;3.244;2023-11-19T11:55:52;33.03;;;6.78;;
22812;SDS011;11573;51.334;3.244;2023-11-19T11:58:25;37.63;;;6.80;;
22812;SDS011;11573;51.334;3.244;2023-11-19T12:00:58;52.38;;;9.02;;
22812;SDS011;11573;51.334;3.244;2023-11-19T12:03:27;45.13;;;7.88;;
22812;SDS011;11573;51.334;3.244;2023-11-19T12:05:55;41.70;;;7.93;;
22812;SDS011;11573;51.334;3.244;2023-11-19T12:08:27;47.58;;;8.32;;
22812;SDS011;11573;51.334;3.244;2023-11-19T12:10:56;47.75;;;8.30;;
22812;SDS011;11573;51.334;3.244;2023-11-19T12:13:25;46.40;;;6.93;;
22812;SDS011;11573;51.334;3.244;2023-11-19T12:16:09;49.50;;;8.10;;
22812;SDS011;11573;51.334;3.244;2023-11-19T12:18:38;41.95;;;8.30;;
22812;SDS011;11573;51.334;3.244;2023-11-19T12:21:06;32.00;;;6.63;;
22812;SDS011;11573;51.334;3.244;2023-11-19T12:23:36;48.38;;;8.07;;
22812;SDS011;11573;51.334;3.244;2023-11-19T12:26:21;41.92;;;8.45;;
22812;SDS011;11573;51.334;3.244;2023-11-19T12:28:58;47.78;;;6.80;;
22812;SDS011;11573;51.334;3.244;2023-11-19T12:31:26;38.70;;;7.82;;
22812;SDS011;11573;51.334;3.244;2023-11-19T12:33:53;34.53;;;6.55;;
22812;SDS011;11573;51.334;3.244;2023-11-19T12:36:20;37.40;;;6.90;;
22812;SDS011;11573;51.334;3.244;2023-11-19T12:38:47;26.98;;;5.43;;
22812;SDS011;11573;51.334;3.244;2023-11-19T12:41:15;37.25;;;6.05;;
22812;SDS011;11573;51.334;3.244;2023-11-19T12:43:46;34.97;;;6.13;;
22812;SDS011;11573;51.334;3.244;2023-11-19T12:48:50;30.10;;;6.05;;
22812;SDS011;11573;51.334;3.244;2023-11-19T12:51:18;29.00;;;6.55;;
22812;SDS011;11573;51.334;3.244;2023-11-19T12:53:52;43.03;;;7.22;;
22812;SDS011;11573;51.334;3.244;2023-11-19T12:56:24;33.92;;;6.72;;
22812;SDS011;11573;51.334;3.244;2023-11-19T12:58:51;36.58;;;7.13;;
22812;SDS011;11573;51.334;3.244;2023-11-19T13:01:18;39.33;;;7.03;;
22812;SDS011;11573;51.334;3.244;2023-11-19T13:03:47;49.60;;;7.82;;
22812;SDS011;11573;51.334;3.244;2023-11-19T13:06:18;41.17;;;6.50;;
22812;SDS011;11573;51.334;3.244;2023-11-19T13:08:48;48.63;;;6.80;;
22812;SDS011;11573;51.334;3.244;2023-11-19T13:11:31;39.47;;;6.05;;
22812;SDS011;11573;51.334;3.244;2023-11-19T13:14:05;33.58;;;6.25;;
22812;SDS011;11573;51.334;3.244;2023-11-19T13:16:37;33.83;;;6.70;;
22812;SDS011;11573;51.334;3.244;2023-11-19T13:19:05;39.63;;;7.20;;
22812;SDS011;11573;51.334;3.244;2023-11-19T13:21:32;42.03;;;7.45;;
22812;SDS011;11573;51.334;3.244;2023-11-19T13:24:00;31.58;;;6.88;;
22812;SDS011;11573;51.334;3.244;2023-11-19T13:26:27;33.03;;;7.10;;
22812;SDS011;11573;51.334;3.244;2023-11-19T13:28:54;27.90;;;5.88;;
22812;SDS011;11573;51.334;3.244;2023-11-19T13:31:21;28.30;;;6.07;;
22812;SDS011;11573;51.334;3.244;2023-11-19T13:33:48;24.08;;;5.97;;
22812;SDS011;11573;51.334;3.244;2023-11-19T13:36:16;26.25;;;5.47;;
22812;SDS011;11573;51.334;3.244;2023-11-19T13:38:43;24.95;;;5.13;;
22812;SDS011;11573;51.334;3.244;2023-11-19T13:41:13;33.63;;;6.15;;
22812;SDS011;11573;51.334;3.244;2023-11-19T13:43:41;24.95;;;5.53;;
22812;SDS011;11573;51.334;3.244;2023-11-19T13:46:08;30.48;;;5.80;;
22812;SDS011;11573;51.334;3.244;2023-11-19T13:48:37;31.77;;;5.57;;
22812;SDS011;11573;51.334;3.244;2023-11-19T13:51:04;35.08;;;6.00;;
22812;SDS011;11573;51.334;3.244;2023-11-19T13:53:32;29.23;;;6.07;;
22812;SDS011;11573;51.334;3.244;2023-11-19T13:56:17;28.90;;;6.30;;
22812;SDS011;11573;51.334;3.244;2023-11-19T13:58:44;23.55;;;4.80;;
22812;SDS011;11573;51.334;3.244;2023-11-19T14:01:12;28.65;;;6.10;;
22812;SDS011;11573;51.334;3.244;2023-11-19T14:03:39;29.15;;;6.13;;
22812;SDS011;11573;51.334;3.244;2023-11-19T14:06:08;28.10;;;5.25;;
22812;SDS011;11573;51.334;3.244;2023-11-19T14:08:36;28.95;;;6.03;;
22812;SDS011;11573;51.334;3.244;2023-11-19T14:11:04;27.73;;;5.50;;
22812;SDS011;11573;51.334;3.244;2023-11-19T14:13:31;24.85;;;5.45;;
22812;SDS011;11573;51.334;3.244;2023-11-19T14:15:59;37.35;;;6.28;;
22812;SDS011;11573;51.334;3.244;2023-11-19T14:18:27;30.90;;;5.80;;
22812;SDS011;11573;51.334;3.244;2023-11-19T14:20:54;33.60;;;6.50;;
22812;SDS011;11573;51.334;3.244;2023-11-19T14:23:21;33.13;;;6.40;;
22812;SDS011;11573;51.334;3.244;2023-11-19T14:25:48;28.40;;;6.63;;
22812;SDS011;11573;51.334;3.244;2023-11-19T14:28:16;38.95;;;6.80;;
22812;SDS011;11573;51.334;3.244;2023-11-19T14:30:43;33.03;;;5.65;;
22812;SDS011;11573;51.334;3.244;2023-11-19T14:33:11;26.10;;;5.07;;
22812;SDS011;11573;51.334;3.244;2023-11-19T14:35:38;31.25;;;6.10;;
22812;SDS011;11573;51.334;3.244;2023-11-19T14:38:05;31.38;;;5.03;;
22812;SDS011;11573;51.334;3.244;2023-11-19T14:40:36;27.85;;;5.22;;
22812;SDS011;11573;51.334;3.244;2023-11-19T14:43:06;30.10;;;5.25;;
22812;SDS011;11573;51.334;3.244;2023-11-19T14:45:37;31.10;;;6.25;;
22812;SDS011;11573;51.334;3.244;2023-11-19T14:48:14;27.90;;;5.07;;
22812;SDS011;11573;51.334;3.244;2023-11-19T14:50:42;26.73;;;5.78;;